Time;durP1;ratioP1;P1;durP2;ratioP2;P2;SDS_P1;SDS_P2;PMS_P1;PMS_P2;Temp;Humidity;BMP_temperature;BMP_pressure;BME280_temperature;BME280_humidity;BME280_pressure;Samples;Min_cycle;Max_cycle;Signal;HPM_P1;HPM_P2
2022/09/28 00:01:46;;;;;;;5.80;1.33;;;;;;;;;;4954908;28;20034;-59
2022/09/28 00:04:34;;;;;;;5.57;1.13;;;;;;;;;;4950763;28;20048;-58
2022/09/28 00:07:20;;;;;;;1.70;1.10;;;;;;;;;;4961259;28;20066;-59
2022/09/28 00:10:07;;;;;;;6.45;1.20;;;;;;;;;;4957251;28;20042;-60
2022/09/28 00:12:55;;;;;;;6.05;1.35;;;;;;;;;;4956362;28;20035;-58
2022/09/28 00:15:40;;;;;;;4.05;1.40;;;;;;;;;;4960361;28;20077;-59
2022/09/28 00:18:27;;;;;;;2.78;1.30;;;;;;;;;;4957298;28;20044;-58
2022/09/28 00:21:14;;;;;;;2.33;0.85;;;;;;;;;;4958247;28;20035;-59
2022/09/28 00:24:19;;;;;;;4.93;1.20;;;;;;;;;;4957122;28;20131;-59
2022/09/28 00:27:05;;;;;;;6.20;1.08;;;;;;;;;;4956753;28;20031;-58
2022/09/28 00:29:51;;;;;;;3.17;1.15;;;;;;;;;;4962067;28;20448;-59
2022/09/28 00:32:36;;;;;;;9.07;1.77;;;;;;;;;;4955742;28;20035;-51
2022/09/28 00:35:22;;;;;;;5.80;1.60;;;;;;;;;;4960422;28;20086;-59
2022/09/28 00:38:08;;;;;;;5.22;1.80;;;;;;;;;;4961493;28;20074;-58
2022/09/28 00:40:54;;;;;;;3.80;1.05;;;;;;;;;;4958085;28;21111;-59
2022/09/28 00:43:40;;;;;;;5.97;1.60;;;;;;;;;;4957176;28;20082;-59
2022/09/28 00:49:07;;;;;;;6.15;1.65;;;;;;;;;;4780011;23;20480;-57
2022/09/28 00:51:53;;;;;;;4.30;1.10;;;;;;;;;;4953889;28;20097;-59
2022/09/28 00:54:42;;;;;;;7.13;1.38;;;;;;;;;;4951441;28;20838;-58
2022/09/28 00:57:28;;;;;;;3.47;1.65;;;;;;;;;;4955266;28;20027;-59
2022/09/28 01:00:14;;;;;;;3.15;1.40;;;;;;;;;;4956339;28;20055;-59
2022/09/28 01:03:01;;;;;;;4.97;1.40;;;;;;;;;;4958550;28;20130;-59
2022/09/28 01:05:49;;;;;;;5.88;1.48;;;;;;;;;;4957251;28;20061;-58
2022/09/28 01:08:35;;;;;;;3.10;1.45;;;;;;;;;;4956562;28;20600;-58
2022/09/28 01:11:21;;;;;;;4.53;1.25;;;;;;;;;;4955461;28;20039;-58
2022/09/28 01:14:11;;;;;;;5.47;1.40;;;;;;;;;;4955600;28;20071;-57
2022/09/28 01:17:16;;;;;;;4.72;1.50;;;;;;;;;;4956592;28;20039;-58
2022/09/28 01:20:11;;;;;;;4.65;1.25;;;;;;;;;;4957799;28;20054;-58
2022/09/28 01:23:27;;;;;;;6.93;1.48;;;;;;;;;;4951231;28;20055;-57
2022/09/28 01:26:16;;;;;;;5.05;1.70;;;;;;;;;;4953980;28;20046;-57
2022/09/28 01:29:11;;;;;;;7.50;2.00;;;;;;;;;;4957541;28;20043;-58
2022/09/28 01:32:05;;;;;;;3.05;1.50;;;;;;;;;;4954519;28;20478;-58
2022/09/28 01:35:01;;;;;;;2.55;1.20;;;;;;;;;;4955421;28;20106;-58
2022/09/28 01:38:18;;;;;;;4.65;2.05;;;;;;;;;;4956427;28;20038;-59
2022/09/28 01:41:05;;;;;;;5.35;1.20;;;;;;;;;;4960471;28;20040;-58
2022/09/28 01:43:54;;;;;;;3.58;1.20;;;;;;;;;;4952705;28;20487;-57
2022/09/28 01:46:44;;;;;;;4.65;1.33;;;;;;;;;;4957275;28;20133;-58
2022/09/28 01:49:40;;;;;;;3.88;1.10;;;;;;;;;;4955959;28;20062;-58
2022/09/28 01:52:35;;;;;;;5.90;1.30;;;;;;;;;;4952100;28;20134;-58
2022/09/28 01:55:32;;;;;;;3.67;1.15;;;;;;;;;;4949732;28;20134;-59
2022/09/28 01:58:27;;;;;;;3.75;1.40;;;;;;;;;;4957868;28;20070;-58
2022/09/28 02:01:20;;;;;;;3.03;1.13;;;;;;;;;;4955113;28;20061;-58
2022/09/28 02:04:17;;;;;;;3.53;1.10;;;;;;;;;;4956541;28;20105;-58
2022/09/28 02:07:11;;;;;;;3.72;1.15;;;;;;;;;;4960218;28;20091;-59
2022/09/28 02:10:02;;;;;;;5.78;1.98;;;;;;;;;;4955319;28;20098;-58
2022/09/28 02:12:55;;;;;;;4.10;1.05;;;;;;;;;;4956398;28;20032;-60
2022/09/28 02:15:55;;;;;;;2.20;0.90;;;;;;;;;;4954009;28;20042;-58
2022/09/28 02:18:42;;;;;;;5.20;1.42;;;;;;;;;;4956340;28;20435;-58
2022/09/28 02:21:31;;;;;;;3.15;0.98;;;;;;;;;;4954549;28;20019;-57
2022/09/28 02:24:40;;;;;;;4.32;1.30;;;;;;;;;;4954627;28;20069;-59
2022/09/28 02:27:26;;;;;;;5.45;1.65;;;;;;;;;;4953234;28;20035;-59
2022/09/28 02:30:12;;;;;;;7.13;1.45;;;;;;;;;;4954619;28;20042;-57
2022/09/28 02:33:10;;;;;;;4.18;1.13;;;;;;;;;;4958784;28;20055;-57
2022/09/28 02:35:57;;;;;;;3.25;1.25;;;;;;;;;;4952336;28;20035;-58
2022/09/28 02:38:43;;;;;;;5.05;1.40;;;;;;;;;;4957423;28;20399;-59
2022/09/28 02:41:52;;;;;;;3.60;1.05;;;;;;;;;;4959643;28;20127;-59
2022/09/28 02:44:50;;;;;;;5.25;1.10;;;;;;;;;;4948512;28;20394;-59
2022/09/28 02:48:06;;;;;;;3.05;1.00;;;;;;;;;;4956749;28;20403;-58
2022/09/28 02:51:42;;;;;;;3.75;1.15;;;;;;;;;;4953367;28;20110;-59
2022/09/28 02:55:05;;;;;;;5.13;1.33;;;;;;;;;;4879828;29;20056;-59
2022/09/28 02:58:10;;;;;;;4.28;1.67;;;;;;;;;;4880211;29;20374;-59
2022/09/28 03:01:20;;;;;;;5.95;1.50;;;;;;;;;;4876703;29;20041;-58
2022/09/28 03:04:19;;;;;;;9.32;1.83;;;;;;;;;;4878711;29;20157;-59
2022/09/28 03:07:29;;;;;;;4.70;1.30;;;;;;;;;;4880745;29;20530;-58
2022/09/28 03:10:23;;;;;;;4.55;1.60;;;;;;;;;;4876507;29;20072;-58
2022/09/28 03:13:11;;;;;;;4.97;1.38;;;;;;;;;;4877493;29;20070;-59
2022/09/28 03:16:17;;;;;;;10.30;1.65;;;;;;;;;;4883912;29;20037;-60
2022/09/28 03:19:03;;;;;;;2.80;1.25;;;;;;;;;;4878543;29;20044;-59
2022/09/28 03:21:48;;;;;;;4.03;1.20;;;;;;;;;;4880027;29;20386;-59
2022/09/28 03:24:34;;;;;;;5.28;1.60;;;;;;;;;;4906264;28;20051;-58
2022/09/28 03:27:20;;;;;;;4.97;1.15;;;;;;;;;;4955996;28;20053;-59
2022/09/28 03:30:07;;;;;;;5.68;1.35;;;;;;;;;;4951812;28;20495;-58
2022/09/28 03:32:57;;;;;;;3.92;1.15;;;;;;;;;;4955242;28;20078;-59
2022/09/28 03:35:46;;;;;;;3.08;1.40;;;;;;;;;;4958168;28;20073;-59
2022/09/28 03:38:32;;;;;;;6.38;1.35;;;;;;;;;;4960328;28;20074;-59
2022/09/28 03:41:18;;;;;;;5.72;1.38;;;;;;;;;;4959479;28;20431;-59
2022/09/28 03:44:03;;;;;;;7.05;1.40;;;;;;;;;;4958055;28;20109;-58
2022/09/28 03:46:49;;;;;;;2.40;1.17;;;;;;;;;;4959839;28;20037;-58
2022/09/28 03:49:35;;;;;;;6.50;1.60;;;;;;;;;;4956948;28;20054;-59
2022/09/28 03:52:21;;;;;;;4.72;1.73;;;;;;;;;;4959555;28;20085;-58
2022/09/28 03:55:07;;;;;;;3.58;1.30;;;;;;;;;;4956793;28;20038;-59
2022/09/28 03:57:54;;;;;;;3.13;1.02;;;;;;;;;;4943475;28;20058;-56
2022/09/28 04:00:40;;;;;;;4.95;1.60;;;;;;;;;;4960562;28;20033;-59
2022/09/28 04:03:26;;;;;;;5.72;1.50;;;;;;;;;;4961654;28;20039;-57
2022/09/28 04:06:12;;;;;;;5.57;1.50;;;;;;;;;;4957535;28;20668;-58
2022/09/28 04:08:58;;;;;;;4.82;1.33;;;;;;;;;;4958540;28;20043;-58
2022/09/28 04:11:46;;;;;;;10.02;1.95;;;;;;;;;;4961672;28;20097;-56
2022/09/28 04:14:31;;;;;;;3.92;1.38;;;;;;;;;;4956770;28;20035;-58
2022/09/28 04:17:17;;;;;;;4.78;1.55;;;;;;;;;;4959444;28;20461;-58
2022/09/28 04:20:03;;;;;;;4.40;1.50;;;;;;;;;;4955817;28;20480;-59
2022/09/28 04:22:49;;;;;;;6.07;1.80;;;;;;;;;;4955610;28;20522;-59
2022/09/28 04:25:34;;;;;;;3.95;1.30;;;;;;;;;;4957412;28;20027;-57
2022/09/28 04:31:25;;;;;;;3.70;1.30;;;;;;;;;;4953991;28;20071;-58
2022/09/28 04:34:13;;;;;;;4.13;1.48;;;;;;;;;;4959959;28;20041;-59
2022/09/28 04:36:59;;;;;;;4.43;1.48;;;;;;;;;;4958907;28;20035;-58
2022/09/28 04:39:44;;;;;;;4.97;1.40;;;;;;;;;;4954510;28;20101;-56
2022/09/28 04:42:30;;;;;;;9.55;1.58;;;;;;;;;;4956333;28;20023;-57
2022/09/28 04:45:16;;;;;;;9.88;1.80;;;;;;;;;;4960305;28;20070;-58
2022/09/28 04:48:05;;;;;;;6.55;1.40;;;;;;;;;;4956767;28;20467;-57
2022/09/28 04:50:55;;;;;;;6.15;1.40;;;;;;;;;;4953118;28;20491;-57
2022/09/28 04:53:41;;;;;;;5.18;1.33;;;;;;;;;;4953139;28;20546;-57
2022/09/28 04:56:26;;;;;;;4.75;1.88;;;;;;;;;;4959765;28;20053;-59
2022/09/28 04:59:12;;;;;;;4.55;1.40;;;;;;;;;;4958026;28;20488;-58
2022/09/28 05:01:58;;;;;;;4.10;1.80;;;;;;;;;;4956654;28;20035;-59
2022/09/28 05:04:43;;;;;;;7.18;1.95;;;;;;;;;;4960862;28;20087;-60
2022/09/28 05:07:30;;;;;;;6.25;2.08;;;;;;;;;;4955316;28;20570;-59
2022/09/28 05:10:17;;;;;;;10.52;1.88;;;;;;;;;;4942491;28;20502;-58
2022/09/28 05:13:03;;;;;;;12.10;1.98;;;;;;;;;;4941716;28;20046;-59
2022/09/28 05:15:52;;;;;;;10.60;2.03;;;;;;;;;;4943499;28;20039;-60
2022/09/28 05:18:38;;;;;;;8.20;1.73;;;;;;;;;;4943086;28;20488;-60
2022/09/28 05:21:25;;;;;;;5.15;1.45;;;;;;;;;;4942092;28;20042;-60
2022/09/28 05:24:11;;;;;;;5.43;1.70;;;;;;;;;;4942216;28;20039;-59
2022/09/28 05:26:57;;;;;;;4.20;2.10;;;;;;;;;;4941811;28;20122;-59
2022/09/28 05:29:42;;;;;;;5.72;2.30;;;;;;;;;;4941580;28;20047;-59
2022/09/28 05:32:28;;;;;;;7.47;1.50;;;;;;;;;;4944430;28;20105;-59
2022/09/28 05:35:14;;;;;;;5.28;1.50;;;;;;;;;;4953996;28;20150;-59
2022/09/28 05:38:04;;;;;;;5.55;1.50;;;;;;;;;;4959400;28;20503;-59
2022/09/28 05:40:50;;;;;;;7.05;1.70;;;;;;;;;;4956550;28;20054;-59
2022/09/28 05:43:37;;;;;;;6.28;1.80;;;;;;;;;;4958764;28;20035;-60
2022/09/28 05:46:22;;;;;;;5.63;1.58;;;;;;;;;;4958554;28;20404;-60
2022/09/28 05:49:08;;;;;;;5.05;1.65;;;;;;;;;;4956312;28;20066;-60
2022/09/28 05:51:54;;;;;;;5.35;1.63;;;;;;;;;;4952374;28;20043;-60
2022/09/28 05:54:40;;;;;;;4.40;1.77;;;;;;;;;;4955719;28;20074;-59
2022/09/28 05:57:25;;;;;;;6.88;1.80;;;;;;;;;;4949691;28;20140;-60
2022/09/28 06:00:11;;;;;;;5.85;1.90;;;;;;;;;;4958254;28;20554;-60
2022/09/28 06:02:59;;;;;;;7.32;1.70;;;;;;;;;;4956851;28;20160;-60
2022/09/28 06:05:46;;;;;;;12.82;1.77;;;;;;;;;;4957689;28;20045;-60
2022/09/28 06:08:32;;;;;;;7.75;1.67;;;;;;;;;;4954317;28;20504;-60
2022/09/28 06:11:18;;;;;;;7.45;2.28;;;;;;;;;;4957470;28;20126;-59
2022/09/28 06:14:04;;;;;;;10.07;2.05;;;;;;;;;;4952468;28;20500;-59
2022/09/28 06:16:49;;;;;;;9.10;2.30;;;;;;;;;;4950162;28;20040;-60
2022/09/28 06:19:35;;;;;;;4.30;1.60;;;;;;;;;;4956321;28;20042;-60
2022/09/28 06:22:21;;;;;;;9.50;2.30;;;;;;;;;;4959952;28;20043;-60
2022/09/28 06:25:07;;;;;;;7.03;1.52;;;;;;;;;;4957552;28;20409;-60
2022/09/28 06:28:01;;;;;;;6.68;2.03;;;;;;;;;;4950329;28;20059;-59
2022/09/28 06:30:47;;;;;;;5.90;1.73;;;;;;;;;;4951900;28;20027;-60
2022/09/28 06:33:34;;;;;;;11.10;2.20;;;;;;;;;;4953519;28;20091;-60
2022/09/28 06:36:21;;;;;;;8.27;2.08;;;;;;;;;;4954660;28;20050;-59
2022/09/28 06:39:06;;;;;;;5.35;2.00;;;;;;;;;;4959434;28;20131;-60
2022/09/28 06:41:52;;;;;;;11.40;2.72;;;;;;;;;;4956729;28;20085;-60
2022/09/28 06:44:38;;;;;;;7.88;2.83;;;;;;;;;;4952174;28;20050;-60
2022/09/28 06:47:24;;;;;;;7.60;2.30;;;;;;;;;;4954050;28;20208;-60
2022/09/28 06:50:11;;;;;;;4.85;1.90;;;;;;;;;;4952481;28;20712;-60
2022/09/28 06:52:57;;;;;;;7.65;2.10;;;;;;;;;;4941445;28;20960;-60
2022/09/28 06:55:47;;;;;;;12.02;1.90;;;;;;;;;;4953864;28;20047;-60
2022/09/28 06:58:32;;;;;;;7.88;2.58;;;;;;;;;;4952834;28;20510;-60
2022/09/28 07:01:18;;;;;;;8.48;1.70;;;;;;;;;;4955699;28;20027;-60
2022/09/28 07:04:04;;;;;;;10.27;1.95;;;;;;;;;;4957823;28;20066;-59
2022/09/28 07:06:50;;;;;;;11.25;1.83;;;;;;;;;;4957242;28;20039;-59
2022/09/28 07:09:36;;;;;;;8.35;1.40;;;;;;;;;;4955644;28;20050;-60
2022/09/28 07:12:24;;;;;;;4.90;2.28;;;;;;;;;;4956549;28;20047;-60
2022/09/28 07:15:10;;;;;;;9.57;2.05;;;;;;;;;;4959115;28;20047;-60
2022/09/28 07:18:01;;;;;;;8.25;1.70;;;;;;;;;;4956505;28;20039;-59
2022/09/28 07:20:47;;;;;;;8.75;1.83;;;;;;;;;;4960624;28;20484;-60
2022/09/28 07:23:33;;;;;;;6.28;1.83;;;;;;;;;;4961245;28;20058;-60
2022/09/28 07:26:19;;;;;;;5.75;2.20;;;;;;;;;;4961485;28;20058;-60
2022/09/28 07:29:05;;;;;;;5.38;1.50;;;;;;;;;;4958175;28;20035;-60
2022/09/28 07:31:52;;;;;;;7.80;1.75;;;;;;;;;;4960547;28;20031;-59
2022/09/28 07:34:44;;;;;;;3.45;1.65;;;;;;;;;;4956685;28;21129;-59
2022/09/28 07:37:30;;;;;;;7.97;1.63;;;;;;;;;;4956455;28;20027;-60
2022/09/28 07:43:21;;;;;;;4.60;1.17;;;;;;;;;;4960246;28;20043;-60
2022/09/28 07:46:10;;;;;;;3.95;1.02;;;;;;;;;;4962763;28;20101;-60
2022/09/28 07:48:57;;;;;;;5.57;1.20;;;;;;;;;;4958328;28;20035;-60
2022/09/28 07:51:43;;;;;;;4.03;1.23;;;;;;;;;;4946700;28;20046;-60
2022/09/28 07:54:30;;;;;;;4.20;1.48;;;;;;;;;;4957352;28;20200;-60
2022/09/28 07:57:15;;;;;;;3.72;1.58;;;;;;;;;;4949812;28;20503;-59
2022/09/28 08:00:04;;;;;;;5.28;1.00;;;;;;;;;;4956193;28;20070;-60
2022/09/28 08:02:50;;;;;;;6.45;1.52;;;;;;;;;;4948749;28;20031;-60
2022/09/28 08:05:36;;;;;;;6.28;1.50;;;;;;;;;;4956076;28;20039;-60
2022/09/28 08:08:22;;;;;;;3.05;1.35;;;;;;;;;;4955672;28;20131;-60
2022/09/28 08:11:09;;;;;;;5.03;1.10;;;;;;;;;;4953417;28;20043;-60
2022/09/28 08:13:57;;;;;;;3.30;1.13;;;;;;;;;;4953303;28;20043;-60
2022/09/28 08:16:44;;;;;;;2.65;0.90;;;;;;;;;;4958141;28;20034;-60
2022/09/28 08:21:43;;;;;;;1.23;0.80;;;;;;;;;;4955166;28;20081;-60
2022/09/28 08:22:36;;;;;;;3.40;1.08;;;;;;;;;;4952627;28;20522;-58
2022/09/28 08:25:21;;;;;;;1.55;0.60;;;;;;;;;;4956529;28;20380;-60
2022/09/28 08:28:08;;;;;;;3.13;0.80;;;;;;;;;;4958869;28;20047;-60
2022/09/28 08:30:53;;;;;;;4.65;0.90;;;;;;;;;;4953283;28;20451;-60
2022/09/28 08:33:40;;;;;;;1.25;0.70;;;;;;;;;;4954720;28;20074;-60
2022/09/28 08:36:27;;;;;;;1.67;0.65;;;;;;;;;;4959145;28;20039;-60
2022/09/28 08:39:12;;;;;;;2.17;1.05;;;;;;;;;;4957079;28;20043;-60
2022/09/28 08:42:17;;;;;;;1.67;0.73;;;;;;;;;;4958622;28;20043;-59
2022/09/28 08:45:18;;;;;;;5.13;1.13;;;;;;;;;;4953991;28;20624;-60
2022/09/28 08:51:26;;;;;;;1.35;0.60;;;;;;;;;;4957430;28;20043;-59
2022/09/28 08:54:24;;;;;;;0.80;0.35;;;;;;;;;;4952269;28;20036;-60
2022/09/28 08:57:12;;;;;;;2.42;0.90;;;;;;;;;;4954999;28;20090;-60
2022/09/28 09:00:01;;;;;;;5.65;0.60;;;;;;;;;;4958146;28;20043;-60
2022/09/28 09:02:47;;;;;;;0.45;0.45;;;;;;;;;;4950669;28;20396;-60
2022/09/28 09:05:47;;;;;;;0.95;0.38;;;;;;;;;;4958071;28;20034;-60
2022/09/28 09:08:39;;;;;;;5.10;0.43;;;;;;;;;;4956278;28;20043;-60
2022/09/28 09:11:50;;;;;;;1.92;0.40;;;;;;;;;;4952832;28;20039;-60
2022/09/28 09:15:11;;;;;;;5.40;0.88;;;;;;;;;;4955990;28;20597;-58
2022/09/28 09:17:59;;;;;;;1.60;0.60;;;;;;;;;;4956146;28;20054;-60
2022/09/28 09:21:01;;;;;;;4.75;0.52;;;;;;;;;;4950477;28;20054;-60
2022/09/28 09:23:55;;;;;;;0.57;0.40;;;;;;;;;;4952616;28;20562;-59
2022/09/28 09:26:42;;;;;;;1.48;0.60;;;;;;;;;;4956025;28;20057;-59
2022/09/28 09:29:30;;;;;;;1.70;0.50;;;;;;;;;;4960824;28;20039;-59
2022/09/28 09:32:19;;;;;;;4.30;0.50;;;;;;;;;;4959421;28;20102;-60
2022/09/28 09:35:29;;;;;;;0.93;0.60;;;;;;;;;;4953029;28;20300;-59
2022/09/28 09:38:36;;;;;;;0.85;0.60;;;;;;;;;;4953208;28;20134;-60
2022/09/28 09:41:44;;;;;;;1.67;0.50;;;;;;;;;;4955575;28;20038;-60
2022/09/28 09:44:44;;;;;;;1.00;0.57;;;;;;;;;;4959163;28;20646;-60
2022/09/28 09:47:40;;;;;;;1.88;0.70;;;;;;;;;;4959300;28;20034;-60
2022/09/28 09:50:31;;;;;;;2.28;0.85;;;;;;;;;;4951545;28;20109;-59
2022/09/28 09:53:28;;;;;;;0.77;0.77;;;;;;;;;;4954477;28;20046;-59
2022/09/28 09:56:38;;;;;;;0.73;0.70;;;;;;;;;;4946926;28;20057;-60
2022/09/28 09:59:34;;;;;;;0.90;0.60;;;;;;;;;;4950178;28;20035;-59
2022/09/28 10:02:31;;;;;;;0.90;0.40;;;;;;;;;;4955627;28;20113;-60
2022/09/28 10:05:22;;;;;;;2.05;0.50;;;;;;;;;;4955875;28;20042;-59
2022/09/28 10:08:08;;;;;;;4.70;0.90;;;;;;;;;;4945251;28;20440;-60
2022/09/28 10:11:25;;;;;;;0.80;0.55;;;;;;;;;;4958623;28;20034;-60
2022/09/28 10:14:22;;;;;;;0.40;0.35;;;;;;;;;;4955897;28;20061;-60
2022/09/28 10:17:12;;;;;;;3.10;0.40;;;;;;;;;;4955661;28;20069;-60
2022/09/28 10:19:58;;;;;;;1.80;0.50;;;;;;;;;;4954739;28;20055;-60
2022/09/28 10:22:44;;;;;;;0.45;0.45;;;;;;;;;;4948017;28;20148;-59
2022/09/28 10:25:36;;;;;;;2.88;0.60;;;;;;;;;;4950858;28;20140;-60
2022/09/28 10:28:34;;;;;;;2.60;0.55;;;;;;;;;;4956889;28;20047;-60
2022/09/28 10:31:38;;;;;;;0.38;0.38;;;;;;;;;;4951211;28;20123;-59
2022/09/28 10:34:26;;;;;;;0.32;0.32;;;;;;;;;;4957633;28;20531;-60
2022/09/28 10:37:12;;;;;;;0.75;0.30;;;;;;;;;;4940759;28;20184;-60
2022/09/28 10:39:58;;;;;;;0.32;0.32;;;;;;;;;;4956583;28;20039;-60
2022/09/28 10:42:44;;;;;;;0.60;0.40;;;;;;;;;;4951505;28;20074;-60
2022/09/28 10:45:35;;;;;;;0.38;0.20;;;;;;;;;;4947217;28;20030;-60
2022/09/28 10:48:21;;;;;;;0.20;0.20;;;;;;;;;;4955485;28;20043;-60
2022/09/28 10:51:07;;;;;;;0.50;0.25;;;;;;;;;;4954643;28;20055;-60
2022/09/28 10:54:01;;;;;;;0.45;0.17;;;;;;;;;;4951263;28;20050;-60
2022/09/28 10:56:48;;;;;;;0.35;0.30;;;;;;;;;;4951043;28;20035;-60
2022/09/28 10:59:38;;;;;;;2.95;0.30;;;;;;;;;;4952026;28;20051;-60
2022/09/28 11:02:31;;;;;;;0.55;0.40;;;;;;;;;;4957539;28;20154;-60
2022/09/28 11:05:23;;;;;;;2.35;0.28;;;;;;;;;;4956293;28;20102;-59
2022/09/28 11:08:22;;;;;;;2.70;0.50;;;;;;;;;;4951940;28;20044;-59
2022/09/28 11:11:18;;;;;;;1.95;0.40;;;;;;;;;;4957179;28;20039;-60
2022/09/28 11:14:14;;;;;;;0.45;0.45;;;;;;;;;;4950592;28;20083;-60
2022/09/28 11:17:27;;;;;;;2.47;0.30;;;;;;;;;;4955070;28;20133;-60
2022/09/28 11:20:24;;;;;;;0.88;0.30;;;;;;;;;;4954932;28;20046;-60
2022/09/28 11:23:30;;;;;;;0.80;0.40;;;;;;;;;;4957392;28;20140;-60
2022/09/28 11:26:16;;;;;;;0.50;0.28;;;;;;;;;;4950384;28;20042;-60
2022/09/28 11:29:03;;;;;;;1.75;0.47;;;;;;;;;;4954471;28;20487;-60
2022/09/28 11:31:50;;;;;;;0.35;0.28;;;;;;;;;;4954736;28;20035;-60
2022/09/28 11:34:42;;;;;;;1.27;0.28;;;;;;;;;;4951724;28;20036;-60
2022/09/28 11:38:01;;;;;;;1.30;0.32;;;;;;;;;;4952838;28;20031;-60
2022/09/28 11:40:54;;;;;;;0.30;0.30;;;;;;;;;;4957804;28;20066;-60
2022/09/28 11:44:01;;;;;;;2.75;1.25;;;;;;;;;;4957601;28;20050;-60
2022/09/28 11:47:22;;;;;;;1.05;0.35;;;;;;;;;;4950555;28;20027;-60
2022/09/28 11:50:38;;;;;;;0.65;0.40;;;;;;;;;;4860873;29;20049;-60
2022/09/28 11:53:30;;;;;;;2.13;0.50;;;;;;;;;;4858687;29;20049;-60
2022/09/28 11:56:40;;;;;;;5.63;1.30;;;;;;;;;;4859672;29;20041;-60
2022/09/28 11:59:37;;;;;;;1.10;0.57;;;;;;;;;;4857086;29;20069;-60
2022/09/28 12:02:33;;;;;;;1.40;0.35;;;;;;;;;;4865287;29;20033;-60
2022/09/28 12:05:24;;;;;;;4.30;0.50;;;;;;;;;;4866593;29;20094;-60
2022/09/28 12:08:26;;;;;;;1.55;0.32;;;;;;;;;;4866017;29;20553;-60
2022/09/28 12:11:22;;;;;;;1.23;0.40;;;;;;;;;;4864825;29;20065;-59
2022/09/28 12:14:22;;;;;;;0.50;0.40;;;;;;;;;;4865065;29;20053;-59
2022/09/28 12:17:22;;;;;;;1.08;0.45;;;;;;;;;;4866834;29;20048;-60
2022/09/28 12:20:21;;;;;;;3.72;0.50;;;;;;;;;;4866045;29;20143;-59
2022/09/28 12:23:15;;;;;;;0.30;0.30;;;;;;;;;;4865473;29;20049;-60
2022/09/28 12:26:04;;;;;;;4.13;0.30;;;;;;;;;;4931283;28;20046;-60
2022/09/28 12:28:56;;;;;;;0.82;0.28;;;;;;;;;;4958050;28;20042;-60
2022/09/28 12:32:01;;;;;;;;;;;;;;;;;;4959455;28;20087;-59
2022/09/28 12:34:47;;;;;;;2.75;0.32;;;;;;;;;;4958997;28;19922;-59
2022/09/28 12:37:45;;;;;;;1.67;0.60;;;;;;;;;;4956900;28;20106;-60
2022/09/28 12:40:52;;;;;;;1.23;0.45;;;;;;;;;;4958138;28;20049;-60
2022/09/28 12:43:53;;;;;;;0.98;0.45;;;;;;;;;;4951033;28;20047;-60
2022/09/28 12:47:13;;;;;;;1.10;0.30;;;;;;;;;;4955946;28;20062;-59
2022/09/28 12:50:41;;;;;;;1.58;0.77;;;;;;;;;;4953571;28;20503;-59
2022/09/28 12:53:44;;;;;;;2.65;0.45;;;;;;;;;;4881448;29;20452;-60
2022/09/28 12:56:54;;;;;;;0.85;0.40;;;;;;;;;;4883453;29;20119;-60
2022/09/28 13:00:10;;;;;;;1.48;0.40;;;;;;;;;;4884495;29;20053;-60
2022/09/28 13:03:19;;;;;;;0.75;0.45;;;;;;;;;;4876536;29;20047;-60
2022/09/28 13:06:33;;;;;;;1.42;0.50;;;;;;;;;;4872175;29;20039;-60
2022/09/28 13:09:22;;;;;;;1.48;0.65;;;;;;;;;;4879238;29;20095;-60
2022/09/28 13:12:07;;;;;;;0.40;0.40;;;;;;;;;;4875686;29;20068;-61
2022/09/28 13:15:08;;;;;;;2.53;0.73;;;;;;;;;;4881863;29;20144;-60
2022/09/28 13:18:01;;;;;;;2.15;0.32;;;;;;;;;;4882993;29;20490;-60
2022/09/28 13:20:49;;;;;;;2.17;0.20;;;;;;;;;;4878886;29;20060;-60
2022/09/28 13:23:45;;;;;;;0.40;0.38;;;;;;;;;;4880167;29;20052;-60
2022/09/28 13:26:38;;;;;;;0.50;0.17;;;;;;;;;;4880385;29;20425;-60
2022/09/28 13:29:25;;;;;;;9.75;0.43;;;;;;;;;;4905460;28;20109;-60
2022/09/28 13:32:12;;;;;;;0.50;0.30;;;;;;;;;;4955993;28;20054;-60
2022/09/28 13:35:01;;;;;;;1.30;0.40;;;;;;;;;;4955015;28;20747;-60
2022/09/28 13:38:07;;;;;;;0.98;0.30;;;;;;;;;;4952561;28;20034;-61
2022/09/28 13:41:05;;;;;;;2.75;0.30;;;;;;;;;;4958249;28;20039;-60
2022/09/28 13:44:12;;;;;;;0.95;0.38;;;;;;;;;;4953217;28;20827;-60
2022/09/28 13:47:19;;;;;;;1.80;0.25;;;;;;;;;;4947360;28;20063;-60
2022/09/28 13:50:23;;;;;;;1.95;0.57;;;;;;;;;;4960163;28;20065;-60
2022/09/28 13:53:22;;;;;;;0.88;0.50;;;;;;;;;;4952896;28;20039;-60
2022/09/28 13:56:36;;;;;;;2.17;0.60;;;;;;;;;;4956689;28;20161;-60
2022/09/28 13:59:27;;;;;;;5.93;0.90;;;;;;;;;;4950190;28;20045;-61
2022/09/28 14:02:30;;;;;;;2.05;0.90;;;;;;;;;;4958196;28;20071;-60
2022/09/28 14:05:23;;;;;;;4.35;0.60;;;;;;;;;;4953336;28;20043;-56
2022/09/28 14:08:33;;;;;;;4.30;0.60;;;;;;;;;;4959054;28;20063;-60
2022/09/28 14:11:34;;;;;;;11.85;2.90;;;;;;;;;;4950541;28;20128;-60
2022/09/28 14:14:29;;;;;;;0.82;0.30;;;;;;;;;;4949677;28;20146;-60
2022/09/28 14:17:18;;;;;;;2.42;0.38;;;;;;;;;;4957868;28;20066;-60
2022/09/28 14:20:07;;;;;;;4.65;0.45;;;;;;;;;;4951655;28;20081;-61
2022/09/28 14:22:59;;;;;;;0.90;0.30;;;;;;;;;;4953084;28;20043;-60
2022/09/28 14:26:01;;;;;;;4.65;0.50;;;;;;;;;;4957519;28;20027;-61
2022/09/28 14:29:19;;;;;;;2.80;0.50;;;;;;;;;;4956735;28;20067;-61
2022/09/28 14:32:07;;;;;;;1.15;0.30;;;;;;;;;;4958104;28;20038;-61
2022/09/28 14:35:06;;;;;;;0.75;0.47;;;;;;;;;;4954046;28;20118;-61
2022/09/28 14:41:13;;;;;;;2.40;0.32;;;;;;;;;;4955530;28;20023;-61
2022/09/28 14:44:04;;;;;;;5.55;0.40;;;;;;;;;;4944807;28;20045;-60
2022/09/28 14:47:29;;;;;;;1.30;0.50;;;;;;;;;;4953111;28;20070;-61
2022/09/28 14:50:27;;;;;;;2.92;0.50;;;;;;;;;;4955726;28;20052;-61
2022/09/28 14:53:19;;;;;;;2.95;0.63;;;;;;;;;;4952376;28;20114;-61
2022/09/28 14:56:07;;;;;;;3.58;1.27;;;;;;;;;;4952055;28;20050;-61
2022/09/28 14:58:56;;;;;;;2.38;0.68;;;;;;;;;;4953267;28;20070;-61
2022/09/28 15:01:49;;;;;;;1.10;0.38;;;;;;;;;;4954101;28;20042;-61
2022/09/28 15:04:41;;;;;;;2.10;0.52;;;;;;;;;;4954463;28;20066;-60
2022/09/28 15:07:31;;;;;;;1.90;0.60;;;;;;;;;;4955319;28;20061;-60
2022/09/28 15:10:32;;;;;;;2.75;0.70;;;;;;;;;;4948433;28;20546;-60
2022/09/28 15:13:26;;;;;;;1.05;0.60;;;;;;;;;;4955810;28;20051;-60
2022/09/28 15:16:15;;;;;;;8.68;0.65;;;;;;;;;;4953477;28;20031;-60
2022/09/28 15:19:18;;;;;;;1.23;0.50;;;;;;;;;;4954813;28;20054;-60
2022/09/28 15:22:16;;;;;;;4.10;1.45;;;;;;;;;;4952929;28;20035;-61
2022/09/28 15:25:12;;;;;;;1.13;0.25;;;;;;;;;;4955855;28;20058;-61
2022/09/28 15:28:03;;;;;;;1.33;0.38;;;;;;;;;;4953070;28;20051;-60
2022/09/28 15:30:50;;;;;;;1.67;0.63;;;;;;;;;;4958571;28;20046;-60
2022/09/28 15:36:48;;;;;;;4.75;0.70;;;;;;;;;;4952695;28;20126;-60
2022/09/28 15:39:34;;;;;;;0.95;0.47;;;;;;;;;;4955421;28;20043;-61
2022/09/28 15:42:21;;;;;;;0.75;0.50;;;;;;;;;;4957610;28;20037;-61
2022/09/28 15:45:13;;;;;;;4.45;0.57;;;;;;;;;;4954329;28;20048;-61
2022/09/28 15:48:18;;;;;;;1.73;0.40;;;;;;;;;;4956908;28;20487;-61
2022/09/28 15:51:12;;;;;;;1.33;0.43;;;;;;;;;;4959366;28;20054;-61
2022/09/28 15:54:03;;;;;;;1.50;0.60;;;;;;;;;;4953662;28;20034;-59
2022/09/28 15:56:51;;;;;;;1.67;0.40;;;;;;;;;;4956579;28;20484;-61
2022/09/28 15:59:38;;;;;;;3.20;0.63;;;;;;;;;;4959528;28;20043;-61
2022/09/28 16:02:25;;;;;;;4.40;0.80;;;;;;;;;;4957440;28;20490;-61
2022/09/28 16:05:34;;;;;;;5.07;1.13;;;;;;;;;;4955187;28;20039;-61
2022/09/28 16:08:35;;;;;;;4.20;0.70;;;;;;;;;;4947570;28;20051;-60
2022/09/28 16:11:28;;;;;;;7.97;0.68;;;;;;;;;;4951823;28;20484;-61
2022/09/28 16:14:19;;;;;;;2.70;0.60;;;;;;;;;;4949267;28;20539;-60
2022/09/28 16:17:16;;;;;;;1.33;0.68;;;;;;;;;;4959317;28;20035;-61
2022/09/28 16:20:28;;;;;;;0.98;0.57;;;;;;;;;;4954512;28;20117;-60
2022/09/28 16:23:28;;;;;;;2.22;0.80;;;;;;;;;;4954050;28;20781;-60
2022/09/28 16:26:27;;;;;;;1.98;0.68;;;;;;;;;;4959222;28;20106;-59
2022/09/28 16:29:43;;;;;;;2.58;0.55;;;;;;;;;;4954417;28;20058;-60
2022/09/28 16:33:00;;;;;;;1.77;0.63;;;;;;;;;;4957872;28;20051;-60
2022/09/28 16:35:46;;;;;;;3.35;0.63;;;;;;;;;;4959650;28;20074;-60
2022/09/28 16:38:31;;;;;;;4.55;1.00;;;;;;;;;;4959621;28;20130;-60
2022/09/28 16:41:21;;;;;;;5.07;1.02;;;;;;;;;;4961481;28;20054;-59
2022/09/28 16:44:15;;;;;;;3.78;0.90;;;;;;;;;;4959090;28;20054;-60
2022/09/28 16:47:01;;;;;;;1.23;0.60;;;;;;;;;;4954912;28;20035;-60
2022/09/28 16:49:47;;;;;;;3.72;0.82;;;;;;;;;;4954877;28;20049;-60
2022/09/28 16:55:37;;;;;;;2.80;1.02;;;;;;;;;;4957092;28;20078;-61
2022/09/28 16:58:23;;;;;;;2.60;1.05;;;;;;;;;;4943511;28;20066;-60
2022/09/28 17:01:11;;;;;;;3.40;1.13;;;;;;;;;;4958285;28;20432;-61
2022/09/28 17:03:56;;;;;;;1.85;0.60;;;;;;;;;;4957472;28;20046;-58
2022/09/28 17:06:42;;;;;;;3.88;0.90;;;;;;;;;;4959935;28;20035;-60
2022/09/28 17:09:28;;;;;;;3.50;1.10;;;;;;;;;;4958151;28;20554;-61
2022/09/28 17:12:21;;;;;;;4.35;1.10;;;;;;;;;;4952707;28;20035;-60
2022/09/28 17:15:07;;;;;;;6.82;1.30;;;;;;;;;;4951686;28;20055;-60
2022/09/28 17:17:54;;;;;;;3.08;0.82;;;;;;;;;;4952551;28;20039;-60
2022/09/28 17:20:43;;;;;;;6.18;0.90;;;;;;;;;;4958457;28;20027;-60
2022/09/28 17:23:29;;;;;;;3.00;1.30;;;;;;;;;;4954771;28;20058;-60
2022/09/28 17:26:22;;;;;;;3.67;1.15;;;;;;;;;;4956512;28;20058;-60
2022/09/28 17:29:13;;;;;;;8.70;1.50;;;;;;;;;;4956493;28;20412;-60
2022/09/28 17:31:58;;;;;;;3.95;1.50;;;;;;;;;;4956702;28;20177;-60
2022/09/28 17:34:45;;;;;;;7.30;1.45;;;;;;;;;;4947984;28;20047;-61
2022/09/28 17:37:33;;;;;;;5.90;1.30;;;;;;;;;;4959212;28;20043;-61